createdAt,value
2018-12-20T00:00:15.113Z,9.00
2018-12-20T00:01:16.411Z,9.00
2018-12-20T00:02:17.452Z,9.00
2018-12-20T00:03:18.582Z,9.00
2018-12-20T00:04:19.595Z,8.90
2018-12-20T00:05:20.924Z,8.90
2018-12-20T00:06:22.039Z,8.90
2018-12-20T00:07:23.080Z,8.90
2018-12-20T00:08:24.047Z,8.90
2018-12-20T00:09:25.038Z,8.80
2018-12-20T00:10:26.224Z,8.90
2018-12-20T00:11:27.274Z,8.90
2018-12-20T00:12:28.397Z,8.90
2018-12-20T00:13:29.831Z,8.90
2018-12-20T00:14:30.891Z,8.90
2018-12-20T00:15:31.864Z,8.90
2018-12-20T00:16:33.344Z,8.90
2018-12-20T00:17:40.585Z,8.90
2018-12-20T00:18:41.840Z,8.80
2018-12-20T00:19:42.869Z,8.90
2018-12-20T00:20:43.838Z,8.90
2018-12-20T00:21:45.003Z,8.90
2018-12-20T00:22:46.290Z,8.90
2018-12-20T00:23:47.422Z,8.90
2018-12-20T00:24:48.501Z,8.90
2018-12-20T00:25:49.568Z,8.90
2018-12-20T00:26:50.512Z,8.90
2018-12-20T00:27:51.795Z,8.90
2018-12-20T00:28:52.834Z,8.80
2018-12-20T00:29:53.794Z,8.80
2018-12-20T00:30:54.857Z,8.80
2018-12-20T00:31:55.963Z,8.80
2018-12-20T00:32:57.140Z,8.80
2018-12-20T00:33:58.207Z,8.80
2018-12-20T00:34:59.584Z,8.80
2018-12-20T00:36:00.759Z,8.80
2018-12-20T00:37:02.070Z,8.80
2018-12-20T00:38:03.307Z,8.90
2018-12-20T00:39:05.900Z,8.80
2018-12-20T00:40:07.081Z,8.80
2018-12-20T00:41:08.383Z,8.80
2018-12-20T00:42:09.441Z,8.80
2018-12-20T00:43:10.423Z,8.80
2018-12-20T00:44:11.631Z,8.80
2018-12-20T00:45:12.838Z,8.80
2018-12-20T00:46:13.948Z,8.80
2018-12-20T00:47:14.972Z,8.80
2018-12-20T00:48:16.079Z,8.80
2018-12-20T00:49:17.180Z,8.80
2018-12-20T00:50:18.379Z,8.80
2018-12-20T00:51:19.477Z,8.80
2018-12-20T00:52:20.610Z,8.90
2018-12-20T00:53:21.775Z,8.90
2018-12-20T00:54:22.888Z,8.90
2018-12-20T00:55:23.958Z,8.90
2018-12-20T00:56:25.189Z,8.90
2018-12-20T00:57:26.340Z,8.90
2018-12-20T00:58:27.464Z,8.90
2018-12-20T00:59:28.536Z,8.90
2018-12-20T01:00:29.540Z,8.90
2018-12-20T01:01:30.688Z,8.90
2018-12-20T01:02:31.753Z,8.90
2018-12-20T01:03:32.937Z,8.90
2018-12-20T01:04:34.102Z,8.90
2018-12-20T01:05:35.069Z,8.90
2018-12-20T01:06:36.121Z,8.90
2018-12-20T01:07:37.104Z,8.90
2018-12-20T01:08:38.066Z,8.80
2018-12-20T01:09:39.045Z,8.80
2018-12-20T01:10:40.139Z,8.80
2018-12-20T01:11:41.196Z,8.80
2018-12-20T01:12:42.508Z,8.90
2018-12-20T01:13:43.655Z,8.90
2018-12-20T01:14:45.424Z,8.90
2018-12-20T01:15:47.233Z,8.90
2018-12-20T01:16:48.382Z,8.90
2018-12-20T01:17:49.361Z,8.90
2018-12-20T01:18:50.320Z,8.90
2018-12-20T01:19:51.336Z,8.90
2018-12-20T01:20:52.453Z,8.80
2018-12-20T01:21:53.451Z,8.80
2018-12-20T01:22:54.492Z,8.80
2018-12-20T01:23:55.788Z,8.80
2018-12-20T01:24:57.048Z,8.80
2018-12-20T01:25:58.188Z,8.80
2018-12-20T01:26:59.311Z,8.80
2018-12-20T01:28:00.386Z,8.80
2018-12-20T01:29:01.501Z,8.80
2018-12-20T01:30:03.724Z,8.80
2018-12-20T01:31:04.726Z,8.70
2018-12-20T01:32:05.707Z,8.80
2018-12-20T01:33:06.916Z,8.70
2018-12-20T01:34:07.980Z,8.70
2018-12-20T01:35:09.063Z,8.80
2018-12-20T01:36:10.352Z,8.80
2018-12-20T01:37:11.360Z,8.80
2018-12-20T01:38:12.333Z,8.80
2018-12-20T01:39:13.311Z,8.80
2018-12-20T01:40:14.306Z,8.80
2018-12-20T01:41:15.467Z,8.80
2018-12-20T01:42:16.759Z,8.80
2018-12-20T01:43:17.800Z,8.70
2018-12-20T01:44:19.183Z,8.70
2018-12-20T01:45:20.378Z,8.70
2018-12-20T01:46:21.531Z,8.80
2018-12-20T01:47:22.738Z,8.80
2018-12-20T01:48:23.719Z,8.80
2018-12-20T01:49:25.048Z,8.80
2018-12-20T01:50:26.311Z,8.80
2018-12-20T01:51:27.610Z,8.90
2018-12-20T01:52:28.848Z,8.90
2018-12-20T01:53:29.895Z,9.00
2018-12-20T01:54:30.865Z,9.00
2018-12-20T01:55:32.037Z,9.00
2018-12-20T01:56:33.156Z,9.00
2018-12-20T01:57:34.465Z,9.10
2018-12-20T01:58:35.564Z,9.10
2018-12-20T01:59:36.554Z,9.10
2018-12-20T02:00:37.620Z,9.10
2018-12-20T02:01:38.618Z,9.20
2018-12-20T02:02:39.663Z,9.10
2018-12-20T02:03:40.628Z,9.20
2018-12-20T02:04:41.697Z,9.20
2018-12-20T02:05:42.763Z,9.20
2018-12-20T02:06:43.750Z,9.20
2018-12-20T02:07:45.218Z,9.30
2018-12-20T02:08:46.251Z,9.30
2018-12-20T02:09:47.230Z,9.30
2018-12-20T02:10:48.544Z,9.30
2018-12-20T02:11:49.691Z,9.30
2018-12-20T02:12:50.790Z,9.30
2018-12-20T02:13:51.819Z,9.30
2018-12-20T02:14:52.862Z,9.30
2018-12-20T02:15:53.901Z,9.30
2018-12-20T02:16:55.018Z,9.30
2018-12-20T02:17:56.119Z,9.30
2018-12-20T02:18:57.218Z,9.30
2018-12-20T02:19:58.511Z,9.30
2018-12-20T02:20:59.942Z,9.30
2018-12-20T02:22:01.132Z,9.30
2018-12-20T02:23:02.301Z,9.30
2018-12-20T02:24:03.342Z,9.30
2018-12-20T02:25:04.531Z,9.30
2018-12-20T02:26:05.648Z,9.30
2018-12-20T02:27:06.800Z,9.30
2018-12-20T02:28:08.156Z,9.30
2018-12-20T02:29:09.263Z,9.30
2018-12-20T02:30:10.675Z,9.30
2018-12-20T02:31:11.853Z,9.30
2018-12-20T02:32:12.893Z,9.30
2018-12-20T02:33:13.860Z,9.20
2018-12-20T02:34:14.864Z,9.30
2018-12-20T02:35:16.161Z,9.30
2018-12-20T02:36:17.376Z,9.30
2018-12-20T02:37:18.456Z,9.20
2018-12-20T02:38:19.549Z,9.20
2018-12-20T02:39:20.766Z,9.20
2018-12-20T02:40:22.025Z,9.20
2018-12-20T02:41:23.288Z,9.20
2018-12-20T02:42:24.316Z,9.20
2018-12-20T02:43:25.290Z,9.10
2018-12-20T02:44:26.812Z,9.20
2018-12-20T02:45:28.072Z,9.20
2018-12-20T02:46:29.199Z,9.10
2018-12-20T02:47:30.170Z,9.10
2018-12-20T02:48:31.129Z,9.20
2018-12-20T02:49:32.110Z,9.10
2018-12-20T02:50:33.456Z,9.10
2018-12-20T02:51:34.727Z,9.10
2018-12-20T02:52:35.839Z,9.10
2018-12-20T02:53:36.878Z,9.00
2018-12-20T02:54:38.097Z,9.00
2018-12-20T02:55:39.623Z,9.00
2018-12-20T02:56:40.663Z,9.00
2018-12-20T02:57:41.729Z,9.00
2018-12-20T02:58:42.965Z,9.00
2018-12-20T02:59:44.102Z,9.00
2018-12-20T03:00:45.183Z,9.00
2018-12-20T03:01:46.358Z,9.10
2018-12-20T03:02:47.433Z,9.10
2018-12-20T03:03:48.712Z,9.00
2018-12-20T03:04:50.097Z,9.00
2018-12-20T03:05:51.198Z,9.00
2018-12-20T03:06:52.232Z,9.00
2018-12-20T03:07:53.219Z,8.90
2018-12-20T03:08:54.272Z,9.10
2018-12-20T03:09:55.383Z,9.00
2018-12-20T03:10:56.448Z,9.00
2018-12-20T03:11:57.779Z,9.00
2018-12-20T03:12:58.900Z,8.90
2018-12-20T03:14:00.276Z,9.00
2018-12-20T03:15:01.520Z,9.00
2018-12-20T03:16:02.915Z,8.90
2018-12-20T03:17:04.111Z,9.00
2018-12-20T03:18:05.384Z,9.00
2018-12-20T03:19:06.643Z,9.00
2018-12-20T03:20:08.001Z,9.00
2018-12-20T03:21:09.013Z,8.90
2018-12-20T03:22:10.213Z,9.00
2018-12-20T03:23:11.493Z,8.90
2018-12-20T03:24:12.665Z,9.00
2018-12-20T03:25:13.976Z,9.00
2018-12-20T03:26:14.986Z,9.00
2018-12-20T03:27:16.039Z,9.00
2018-12-20T03:28:17.298Z,9.00
2018-12-20T03:29:18.429Z,9.00
2018-12-20T03:31:21.077Z,9.00
2018-12-20T03:32:22.210Z,9.00
2018-12-20T03:33:23.246Z,9.00
2018-12-20T03:34:24.317Z,8.90
2018-12-20T03:35:25.569Z,8.90
2018-12-20T03:36:26.688Z,8.90
2018-12-20T03:37:27.869Z,8.90
2018-12-20T03:38:29.079Z,8.90
2018-12-20T03:39:30.169Z,8.90
2018-12-20T03:40:31.315Z,8.90
2018-12-20T03:41:32.380Z,8.90
2018-12-20T03:42:33.587Z,8.90
2018-12-20T03:43:34.645Z,8.90
2018-12-20T03:44:35.880Z,8.90
2018-12-20T03:45:37.335Z,8.80
2018-12-20T03:46:38.412Z,8.80
2018-12-20T03:47:39.680Z,8.80
2018-12-20T03:48:41.054Z,8.70
2018-12-20T03:49:42.084Z,8.70
2018-12-20T03:50:43.262Z,8.70
2018-12-20T03:51:44.528Z,8.70
2018-12-20T03:52:45.519Z,8.70
2018-12-20T03:53:46.499Z,8.60
2018-12-20T03:54:47.913Z,8.60
2018-12-20T03:55:49.081Z,8.50
2018-12-20T03:56:50.290Z,8.50
2018-12-20T03:57:51.507Z,8.50
2018-12-20T03:58:52.722Z,8.50
2018-12-20T03:59:53.750Z,8.40
2018-12-20T04:00:55.663Z,8.40
2018-12-20T04:01:56.925Z,8.40
2018-12-20T04:02:58.243Z,8.30
2018-12-20T04:03:59.335Z,8.30
2018-12-20T04:05:00.531Z,8.30
2018-12-20T04:06:01.925Z,8.30
2018-12-20T04:07:03.161Z,8.30
2018-12-20T04:08:04.311Z,8.30
2018-12-20T04:09:05.545Z,8.30
2018-12-20T04:10:07.069Z,8.30
2018-12-20T04:11:08.248Z,8.30
2018-12-20T04:12:09.226Z,8.30
2018-12-20T04:13:10.228Z,8.30
2018-12-20T04:14:11.247Z,8.30
2018-12-20T04:15:12.432Z,8.30
2018-12-20T04:16:13.814Z,8.30
2018-12-20T04:17:15.041Z,8.30
2018-12-20T04:18:16.176Z,8.30
2018-12-20T04:19:17.351Z,8.30
2018-12-20T04:20:18.532Z,8.30
2018-12-20T04:21:19.849Z,8.30
2018-12-20T04:22:20.939Z,8.30
2018-12-20T04:23:22.013Z,8.30
2018-12-20T04:24:23.147Z,8.30
2018-12-20T04:25:24.378Z,8.30
2018-12-20T04:26:25.614Z,8.30
2018-12-20T04:27:26.770Z,8.30
2018-12-20T04:28:27.870Z,8.30
2018-12-20T04:29:29.330Z,8.30
2018-12-20T04:30:30.427Z,8.40
2018-12-20T04:31:31.743Z,8.40
2018-12-20T04:32:33.131Z,8.50
2018-12-20T04:33:34.575Z,8.50
2018-12-20T04:34:35.654Z,8.50
2018-12-20T04:35:36.799Z,8.60
2018-12-20T04:36:37.886Z,8.60
2018-12-20T04:37:38.940Z,8.60
2018-12-20T04:38:39.900Z,8.60
2018-12-20T04:39:41.068Z,8.70
2018-12-20T04:40:42.274Z,8.60
2018-12-20T04:41:43.422Z,8.60
2018-12-20T04:42:44.444Z,8.70
2018-12-20T04:43:45.459Z,8.70
2018-12-20T04:44:46.773Z,8.70
2018-12-20T04:45:48.075Z,8.70
2018-12-20T04:46:49.167Z,8.80
2018-12-20T04:47:50.341Z,8.80
2018-12-20T04:48:51.353Z,8.70
2018-12-20T04:49:52.391Z,8.70
2018-12-20T04:50:53.539Z,8.70
2018-12-20T04:51:54.601Z,8.70
2018-12-20T04:52:55.946Z,8.70
2018-12-20T04:53:57.049Z,8.80
2018-12-20T04:54:58.351Z,8.80
2018-12-20T04:55:59.780Z,8.80
2018-12-20T04:57:00.985Z,8.70
2018-12-20T04:58:02.225Z,8.70
2018-12-20T04:59:03.520Z,8.70
2018-12-20T05:00:06.974Z,8.70
2018-12-20T05:01:07.928Z,8.70
2018-12-20T05:02:09.066Z,8.70
2018-12-20T05:03:10.103Z,8.70
2018-12-20T05:04:11.217Z,8.80
2018-12-20T05:05:12.472Z,8.80
2018-12-20T05:06:13.607Z,8.80
2018-12-20T05:07:14.757Z,8.80
2018-12-20T05:08:15.854Z,8.90
2018-12-20T05:09:17.007Z,8.90
2018-12-20T05:10:18.900Z,8.90
2018-12-20T05:11:19.949Z,8.90
2018-12-20T05:12:21.116Z,8.90
2018-12-20T05:13:22.298Z,8.80
2018-12-20T05:14:23.378Z,8.80
2018-12-20T05:15:24.607Z,8.80
2018-12-20T05:16:25.952Z,8.80
2018-12-20T05:17:26.916Z,8.80
2018-12-20T05:18:28.128Z,8.70
2018-12-20T05:19:29.151Z,8.70
2018-12-20T05:20:30.296Z,8.70
2018-12-20T05:21:31.632Z,8.70
2018-12-20T05:22:32.951Z,8.70
2018-12-20T05:23:33.921Z,8.70
2018-12-20T05:24:35.154Z,8.80
2018-12-20T05:25:43.278Z,8.70
2018-12-20T05:26:44.319Z,8.80
2018-12-20T05:27:45.321Z,8.80
2018-12-20T05:28:46.516Z,8.80
2018-12-20T05:29:47.660Z,8.80
2018-12-20T05:30:48.854Z,8.80
2018-12-20T05:31:49.911Z,8.80
2018-12-20T05:32:51.202Z,8.90
2018-12-20T05:33:52.273Z,8.90
2018-12-20T05:34:53.603Z,8.90
2018-12-20T05:35:54.706Z,8.90
2018-12-20T05:36:55.716Z,8.90
2018-12-20T05:37:56.732Z,8.90
2018-12-20T05:38:57.761Z,8.90
2018-12-20T05:39:58.972Z,8.90
2018-12-20T05:41:00.245Z,8.90
2018-12-20T05:42:01.531Z,8.90
2018-12-20T05:43:02.756Z,8.90
2018-12-20T05:44:03.870Z,8.90
2018-12-20T05:45:05.373Z,8.90
2018-12-20T05:46:06.436Z,8.90
2018-12-20T05:47:07.492Z,8.80
2018-12-20T05:48:08.508Z,8.90
2018-12-20T05:49:09.611Z,8.90
2018-12-20T05:50:10.680Z,9.00
2018-12-20T05:51:11.648Z,8.90
2018-12-20T05:52:12.620Z,8.90
2018-12-20T05:53:13.572Z,8.90
2018-12-20T05:54:14.530Z,8.90
2018-12-20T05:55:15.913Z,8.90
2018-12-20T05:56:17.242Z,8.90
2018-12-20T05:57:18.203Z,8.90
2018-12-20T05:58:19.393Z,8.90
2018-12-20T05:59:20.450Z,8.90
2018-12-20T06:00:21.638Z,8.90
2018-12-20T06:01:22.599Z,9.00
2018-12-20T06:02:23.575Z,9.00
2018-12-20T06:03:24.642Z,9.00
2018-12-20T06:04:25.705Z,9.00
2018-12-20T06:05:26.898Z,8.90
2018-12-20T06:06:28.202Z,8.90
2018-12-20T06:07:29.451Z,8.90
2018-12-20T06:08:30.481Z,8.90
2018-12-20T06:09:31.596Z,8.90
2018-12-20T06:10:32.670Z,8.90
2018-12-20T06:11:33.635Z,8.80
2018-12-20T06:12:34.626Z,8.80
2018-12-20T06:13:35.708Z,8.80
2018-12-20T06:14:36.899Z,8.80
2018-12-20T06:15:38.163Z,8.80
2018-12-20T06:16:39.163Z,8.80
2018-12-20T06:17:40.138Z,8.80
2018-12-20T06:18:41.338Z,8.80
2018-12-20T06:19:42.686Z,8.90
2018-12-20T06:20:44.053Z,8.80
2018-12-20T06:21:45.363Z,8.80
2018-12-20T06:22:46.419Z,8.80
2018-12-20T06:23:47.407Z,8.90
2018-12-20T06:24:48.375Z,8.80
2018-12-20T06:25:49.354Z,8.80
2018-12-20T06:26:50.417Z,8.90
2018-12-20T06:27:51.409Z,8.90
2018-12-20T06:28:52.400Z,8.90
2018-12-20T06:29:53.379Z,8.90
2018-12-20T06:30:54.472Z,8.90
2018-12-20T06:31:55.552Z,8.80
2018-12-20T06:32:56.596Z,8.90
2018-12-20T06:33:57.620Z,9.00
2018-12-20T06:34:58.595Z,9.00
2018-12-20T06:35:59.591Z,9.00
2018-12-20T06:37:00.776Z,9.00
2018-12-20T06:38:02.103Z,9.00
2018-12-20T06:39:06.085Z,9.00
2018-12-20T06:40:07.399Z,8.90
2018-12-20T06:41:08.616Z,8.90
2018-12-20T06:42:09.614Z,8.90
2018-12-20T06:43:10.603Z,8.90
2018-12-20T06:44:11.573Z,8.90
2018-12-20T06:45:12.651Z,8.90
2018-12-20T06:46:20.896Z,8.90
2018-12-20T06:47:16.775Z,8.90
2018-12-20T06:48:17.832Z,8.80
2018-12-20T06:49:18.817Z,8.80
2018-12-20T06:50:19.919Z,8.80
2018-12-20T06:51:20.897Z,8.80
2018-12-20T06:52:21.871Z,8.80
2018-12-20T06:53:22.841Z,8.80
2018-12-20T06:54:23.810Z,8.80
2018-12-20T06:55:24.836Z,8.80
2018-12-20T06:56:25.807Z,8.80
2018-12-20T06:57:26.875Z,8.70
2018-12-20T06:58:27.955Z,8.80
2018-12-20T06:59:28.924Z,8.70
2018-12-20T07:00:29.895Z,8.70
2018-12-20T07:01:30.865Z,8.70
2018-12-20T07:02:31.851Z,8.70
2018-12-20T07:03:32.845Z,8.40
2018-12-20T07:04:33.817Z,8.70
2018-12-20T07:05:34.905Z,8.70
2018-12-20T07:06:35.974Z,8.70
2018-12-20T07:07:36.964Z,8.70
2018-12-20T07:08:37.930Z,8.70
2018-12-20T07:09:39.000Z,8.70
2018-12-20T07:10:39.967Z,8.60
2018-12-20T07:11:40.947Z,8.70
2018-12-20T07:12:41.917Z,8.70
2018-12-20T07:13:42.883Z,8.60
2018-12-20T07:14:43.853Z,8.70
2018-12-20T07:15:44.929Z,8.60
2018-12-20T07:16:46.116Z,8.70
2018-12-20T07:17:47.086Z,8.60
2018-12-20T07:18:48.174Z,8.70
2018-12-20T07:19:49.134Z,8.60
2018-12-20T07:20:50.099Z,8.60
2018-12-20T07:21:51.172Z,8.70
2018-12-20T07:22:52.134Z,8.60
2018-12-20T07:23:53.389Z,8.60
2018-12-20T07:24:54.564Z,8.50
2018-12-20T07:25:55.557Z,8.80
2018-12-20T07:26:56.528Z,8.80
2018-12-20T07:27:57.540Z,8.80
2018-12-20T07:28:58.513Z,8.80
2018-12-20T07:29:59.480Z,8.80
2018-12-20T07:31:00.468Z,8.90
2018-12-20T07:32:01.446Z,8.90
2018-12-20T07:33:02.520Z,8.80
2018-12-20T07:34:03.592Z,8.90
2018-12-20T07:35:05.772Z,8.90
2018-12-20T07:36:06.875Z,8.80
2018-12-20T07:37:07.850Z,8.80
2018-12-20T07:38:08.817Z,8.90
2018-12-20T07:39:09.816Z,8.90
2018-12-20T07:40:10.891Z,8.90
2018-12-20T07:41:11.852Z,8.90
2018-12-20T07:42:12.828Z,8.90
2018-12-20T07:43:13.800Z,8.90
2018-12-20T07:44:14.768Z,8.90
2018-12-20T07:45:15.966Z,9.00
2018-12-20T07:46:17.028Z,9.00
2018-12-20T07:47:18.233Z,9.10
2018-12-20T07:48:19.234Z,9.10
2018-12-20T07:49:20.192Z,9.10
2018-12-20T07:50:21.296Z,9.10
2018-12-20T07:51:29.263Z,9.10
2018-12-20T07:52:30.244Z,9.10
2018-12-20T07:53:31.224Z,9.10
2018-12-20T07:54:32.233Z,9.10
2018-12-20T07:55:33.203Z,9.10
2018-12-20T07:56:34.173Z,9.10
2018-12-20T07:57:35.140Z,9.10
2018-12-20T07:58:36.114Z,9.10
2018-12-20T07:59:37.073Z,9.10
2018-12-20T08:00:38.064Z,9.10
2018-12-20T08:01:39.031Z,9.10
2018-12-20T08:02:39.999Z,9.10
2018-12-20T08:03:40.979Z,9.20
2018-12-20T08:04:41.941Z,9.20
2018-12-20T08:05:42.957Z,9.20
2018-12-20T08:06:43.928Z,9.20
2018-12-20T08:07:44.916Z,9.20
2018-12-20T08:08:45.974Z,9.20
2018-12-20T08:09:46.939Z,9.20
2018-12-20T08:10:48.384Z,9.20
2018-12-20T08:11:49.380Z,9.20
2018-12-20T08:12:50.350Z,9.20
2018-12-20T08:13:51.356Z,9.20
2018-12-20T08:14:52.320Z,9.20
2018-12-20T08:15:53.293Z,9.20
2018-12-20T08:16:54.418Z,9.10
2018-12-20T08:17:55.492Z,9.10
2018-12-20T08:18:56.725Z,9.20
2018-12-20T08:19:57.695Z,9.10
2018-12-20T08:20:58.665Z,9.10
2018-12-20T08:21:59.634Z,9.10
2018-12-20T08:23:00.706Z,9.10
2018-12-20T08:24:01.794Z,9.00
2018-12-20T08:25:03.113Z,9.00
2018-12-20T08:26:04.128Z,9.00
2018-12-20T08:27:05.197Z,9.00
2018-12-20T08:28:06.224Z,9.00
2018-12-20T08:29:07.194Z,9.00
2018-12-20T08:30:08.519Z,9.00
2018-12-20T08:31:09.506Z,9.00
2018-12-20T08:32:10.840Z,9.00
2018-12-20T08:33:11.803Z,9.00
2018-12-20T08:34:12.943Z,9.00
2018-12-20T08:35:14.011Z,9.00
2018-12-20T08:36:15.198Z,9.00
2018-12-20T08:37:16.160Z,9.00
2018-12-20T08:38:17.153Z,9.10
2018-12-20T08:39:18.140Z,9.10
2018-12-20T08:40:19.268Z,9.10
2018-12-20T08:41:20.246Z,9.10
2018-12-20T08:42:21.212Z,9.10
2018-12-20T08:43:22.239Z,9.10
2018-12-20T08:44:23.204Z,9.10
2018-12-20T08:45:24.280Z,9.20
2018-12-20T08:46:25.368Z,9.20
2018-12-20T08:47:26.485Z,9.20
2018-12-20T08:48:27.462Z,9.20
2018-12-20T08:49:28.452Z,9.20
2018-12-20T08:50:30.499Z,9.30
2018-12-20T08:51:31.469Z,9.30
2018-12-20T08:52:32.688Z,9.40
2018-12-20T08:53:33.687Z,9.20
2018-12-20T08:54:34.649Z,9.20
2018-12-20T08:55:35.662Z,9.30
2018-12-20T08:56:36.676Z,9.30
2018-12-20T08:57:37.756Z,9.30
2018-12-20T08:58:39.067Z,9.30
2018-12-20T08:59:40.033Z,9.20
2018-12-20T09:00:41.031Z,9.20
2018-12-20T09:01:42.060Z,9.20
2018-12-20T09:02:43.202Z,9.20
2018-12-20T09:03:44.176Z,9.20
2018-12-20T09:04:45.136Z,9.20
2018-12-20T09:05:46.097Z,9.20
2018-12-20T09:06:47.087Z,9.20
2018-12-20T09:07:48.124Z,9.20
2018-12-20T09:08:49.209Z,9.20
2018-12-20T09:09:50.179Z,9.10
2018-12-20T09:10:51.152Z,9.10
2018-12-20T09:11:52.227Z,9.10
2018-12-20T09:12:53.220Z,9.10
2018-12-20T09:13:54.264Z,9.10
2018-12-20T09:14:55.356Z,9.20
2018-12-20T09:15:56.365Z,9.10
2018-12-20T09:17:02.918Z,9.20
2018-12-20T09:18:00.597Z,9.20
2018-12-20T09:19:01.568Z,9.20
2018-12-20T09:20:04.458Z,9.20
2018-12-20T09:21:05.655Z,9.20
2018-12-20T09:22:06.611Z,9.20
2018-12-20T09:23:07.621Z,9.20
2018-12-20T09:24:08.587Z,9.20
2018-12-20T09:25:09.707Z,9.20
2018-12-20T09:26:10.700Z,9.20
2018-12-20T09:27:11.783Z,9.20
2018-12-20T09:28:13.158Z,9.20
2018-12-20T09:29:14.129Z,9.30
2018-12-20T09:30:15.381Z,9.20
2018-12-20T09:31:16.396Z,9.20
2018-12-20T09:32:17.361Z,9.20
2018-12-20T09:33:25.159Z,9.20
2018-12-20T09:34:26.228Z,9.20
2018-12-20T09:35:27.195Z,9.30
2018-12-20T09:36:28.166Z,9.20
2018-12-20T09:37:29.137Z,9.20
2018-12-20T09:38:30.216Z,9.20
2018-12-20T09:39:38.175Z,9.20
2018-12-20T09:40:39.260Z,9.20
2018-12-20T09:41:40.238Z,9.20
2018-12-20T09:42:41.215Z,9.20
2018-12-20T09:43:42.290Z,9.10
2018-12-20T09:44:43.253Z,9.10
2018-12-20T09:45:44.290Z,9.20
2018-12-20T09:46:45.371Z,9.20
2018-12-20T09:47:52.969Z,9.20
2018-12-20T09:48:54.124Z,9.20
2018-12-20T09:49:55.084Z,9.20
2018-12-20T09:50:56.068Z,9.20
2018-12-20T09:51:57.152Z,9.20
2018-12-20T09:52:58.121Z,9.20
2018-12-20T09:53:59.185Z,9.20
2018-12-20T09:55:00.155Z,9.20
2018-12-20T09:56:01.463Z,9.30
2018-12-20T09:57:02.712Z,9.30
2018-12-20T09:58:03.688Z,9.30
2018-12-20T09:59:04.662Z,9.40
2018-12-20T10:00:09.446Z,9.40
2018-12-20T10:01:10.503Z,9.40
2018-12-20T10:02:11.472Z,9.40
2018-12-20T10:03:12.536Z,9.40
2018-12-20T10:04:13.529Z,9.50
2018-12-20T10:05:14.612Z,9.40
2018-12-20T10:06:15.641Z,9.50
2018-12-20T10:07:16.609Z,9.50
2018-12-20T10:08:17.563Z,9.50
2018-12-20T10:09:18.692Z,9.60
2018-12-20T10:10:19.781Z,9.60
2018-12-20T10:11:20.755Z,9.70
2018-12-20T10:12:22.774Z,9.70
2018-12-20T10:13:23.727Z,9.70
2018-12-20T10:14:24.711Z,9.80
2018-12-20T10:15:25.964Z,9.80
2018-12-20T10:16:26.938Z,9.80
2018-12-20T10:17:27.963Z,9.80
2018-12-20T10:18:29.011Z,9.80
2018-12-20T10:19:30.091Z,9.80
2018-12-20T10:20:31.058Z,9.80
2018-12-20T10:21:32.074Z,9.80
2018-12-20T10:22:33.144Z,9.80
2018-12-20T10:23:34.106Z,9.80
2018-12-20T10:24:35.060Z,9.80
2018-12-20T10:25:36.043Z,9.80
2018-12-20T10:26:37.303Z,9.80
2018-12-20T10:27:38.283Z,9.80
2018-12-20T10:28:39.257Z,9.90
2018-12-20T10:29:40.428Z,9.80
2018-12-20T10:30:41.492Z,9.80
2018-12-20T10:31:42.467Z,9.80
2018-12-20T10:32:43.550Z,9.90
2018-12-20T10:33:44.521Z,9.90
2018-12-20T10:34:45.744Z,9.90
2018-12-20T10:35:46.738Z,9.60
2018-12-20T10:36:47.719Z,9.90
2018-12-20T10:37:48.783Z,9.90
2018-12-20T10:38:49.752Z,10.00
2018-12-20T10:39:50.935Z,10.00
2018-12-20T10:40:52.004Z,10.10
2018-12-20T10:41:53.001Z,10.10
2018-12-20T10:42:54.005Z,10.10
2018-12-20T10:43:54.967Z,10.20
2018-12-20T10:44:55.924Z,10.20
2018-12-20T10:45:56.884Z,10.20
2018-12-20T10:46:59.871Z,10.20
2018-12-20T10:48:00.856Z,10.20
2018-12-20T10:49:01.829Z,10.20
2018-12-20T10:50:03.906Z,10.20
2018-12-20T10:51:04.975Z,10.20
2018-12-20T10:52:06.043Z,10.10
2018-12-20T10:53:07.092Z,10.10
2018-12-20T10:54:08.239Z,10.10
2018-12-20T10:55:09.408Z,10.10
2018-12-20T10:56:10.391Z,10.10
2018-12-20T10:57:11.440Z,10.10
2018-12-20T10:58:12.399Z,10.00
2018-12-20T10:59:13.462Z,10.00
2018-12-20T11:00:14.641Z,10.00
2018-12-20T11:01:21.831Z,10.00
2018-12-20T11:02:29.061Z,10.00
2018-12-20T11:03:45.665Z,10.00
2018-12-20T11:04:52.959Z,10.00
2018-12-20T11:06:00.707Z,10.00
2018-12-20T11:07:08.163Z,9.90
2018-12-20T11:08:15.203Z,9.90
2018-12-20T11:10:51.544Z,9.90
2018-12-20T11:11:58.748Z,9.90
2018-12-20T11:13:02.088Z,9.90
2018-12-20T11:14:03.267Z,9.90
2018-12-20T11:15:05.640Z,9.90
2018-12-20T11:16:06.608Z,9.80
2018-12-20T11:17:07.579Z,9.90
2018-12-20T11:18:08.573Z,9.80
2018-12-20T11:19:09.530Z,9.90
2018-12-20T11:20:10.511Z,9.80
2018-12-20T11:21:11.683Z,9.80
2018-12-20T11:22:12.663Z,9.80
2018-12-20T11:23:13.668Z,9.70
2018-12-20T11:24:14.622Z,9.80
2018-12-20T11:25:15.711Z,9.80
2018-12-20T11:26:16.677Z,9.80
2018-12-20T11:27:17.787Z,9.80
2018-12-20T11:28:18.745Z,9.80
2018-12-20T11:29:19.804Z,9.80
2018-12-20T11:30:20.772Z,9.80
2018-12-20T11:31:21.744Z,9.80
2018-12-20T11:32:22.743Z,9.80
2018-12-20T11:33:23.771Z,9.80
2018-12-20T11:34:25.364Z,9.80
2018-12-20T11:35:26.436Z,9.80
2018-12-20T11:36:27.403Z,9.80
2018-12-20T11:37:28.372Z,9.80
2018-12-20T11:38:29.343Z,9.80
2018-12-20T11:39:30.303Z,9.80
2018-12-20T11:40:31.262Z,9.80
2018-12-20T11:41:32.260Z,9.90
2018-12-20T11:42:33.306Z,9.90
2018-12-20T11:43:34.372Z,9.90
2018-12-20T11:44:35.467Z,9.90
2018-12-20T11:45:36.432Z,9.90
2018-12-20T11:46:37.387Z,9.90
2018-12-20T11:47:45.662Z,9.90
2018-12-20T11:48:41.339Z,9.90
2018-12-20T11:49:42.303Z,9.90
2018-12-20T11:50:43.529Z,10.00
2018-12-20T11:51:44.662Z,10.00
2018-12-20T11:52:45.684Z,10.00
2018-12-20T11:53:46.692Z,10.00
2018-12-20T11:54:47.668Z,10.00
2018-12-20T11:55:48.631Z,10.00
2018-12-20T11:56:49.597Z,10.00
2018-12-20T11:57:50.780Z,10.00
2018-12-20T11:58:51.743Z,10.00
2018-12-20T11:59:52.719Z,10.00
2018-12-20T12:00:53.712Z,10.00
2018-12-20T12:01:54.675Z,10.10
2018-12-20T12:02:55.681Z,10.10
2018-12-20T12:03:57.464Z,10.10
2018-12-20T12:04:58.844Z,10.10
2018-12-20T12:06:00.029Z,10.10
2018-12-20T12:07:01.108Z,10.10
2018-12-20T12:08:02.188Z,10.10
2018-12-20T12:09:05.369Z,10.10
2018-12-20T12:10:06.547Z,10.10
2018-12-20T12:11:07.517Z,10.00
2018-12-20T12:12:08.572Z,10.10
2018-12-20T12:13:09.672Z,10.10
2018-12-20T12:14:10.748Z,10.10
2018-12-20T12:15:12.023Z,10.00
2018-12-20T12:16:13.103Z,10.10
2018-12-20T12:17:14.075Z,10.10
2018-12-20T12:18:15.042Z,10.10
2018-12-20T12:19:16.009Z,10.10
2018-12-20T12:20:16.994Z,10.10
2018-12-20T12:21:17.955Z,10.10
2018-12-20T12:22:19.083Z,10.10
2018-12-20T12:23:20.064Z,10.10
2018-12-20T12:24:21.038Z,10.10
2018-12-20T12:25:22.103Z,10.10
2018-12-20T12:26:23.189Z,10.10
2018-12-20T12:27:24.152Z,10.10
2018-12-20T12:28:25.132Z,10.10
2018-12-20T12:29:26.144Z,10.10
2018-12-20T12:30:27.180Z,10.10
2018-12-20T12:31:28.298Z,10.10
2018-12-20T12:32:29.268Z,10.20
2018-12-20T12:33:30.280Z,10.10
2018-12-20T12:34:31.244Z,10.10
2018-12-20T12:35:32.274Z,10.20
2018-12-20T12:36:33.241Z,10.20
2018-12-20T12:37:34.557Z,10.20
2018-12-20T12:38:35.631Z,10.10
2018-12-20T12:39:36.627Z,10.20
2018-12-20T12:40:37.723Z,10.10
2018-12-20T12:41:38.745Z,10.10
2018-12-20T12:42:39.715Z,10.10
2018-12-20T12:43:40.683Z,10.10
2018-12-20T12:44:41.668Z,10.10
2018-12-20T12:45:42.662Z,10.10
2018-12-20T12:46:43.740Z,10.20
2018-12-20T12:47:50.808Z,10.20
2018-12-20T12:48:51.891Z,10.20
2018-12-20T12:49:52.848Z,10.20
2018-12-20T12:50:53.951Z,10.20
2018-12-20T12:51:55.128Z,10.20
2018-12-20T12:52:56.240Z,10.20
2018-12-20T12:53:57.203Z,10.20
2018-12-20T12:54:58.179Z,10.10
2018-12-20T12:55:59.152Z,10.20
2018-12-20T12:57:00.123Z,10.20
2018-12-20T12:58:04.934Z,10.30
2018-12-20T12:59:04.102Z,10.30
2018-12-20T13:00:08.904Z,10.30
2018-12-20T13:01:10.167Z,10.30
2018-12-20T13:02:11.154Z,10.30
2018-12-20T13:03:12.246Z,10.30
2018-12-20T13:04:13.528Z,10.40
2018-12-20T13:05:15.547Z,10.30
2018-12-20T13:06:16.539Z,10.40
2018-12-20T13:07:17.521Z,10.40
2018-12-20T13:08:18.517Z,10.40
2018-12-20T13:09:20.397Z,10.40
2018-12-20T13:10:21.608Z,10.40
2018-12-20T13:11:22.676Z,10.40
2018-12-20T13:12:23.891Z,10.40
2018-12-20T13:13:25.067Z,10.50
2018-12-20T13:14:26.052Z,10.40
2018-12-20T13:15:27.024Z,10.50
2018-12-20T13:16:28.076Z,10.50
2018-12-20T13:17:29.043Z,10.50
2018-12-20T13:18:30.252Z,10.60
2018-12-20T13:19:31.219Z,10.60
2018-12-20T13:20:32.334Z,10.70
2018-12-20T13:21:33.413Z,10.70
2018-12-20T13:22:34.381Z,10.70
2018-12-20T13:23:35.351Z,10.70
2018-12-20T13:24:36.449Z,10.70
2018-12-20T13:25:37.439Z,10.60
2018-12-20T13:26:38.420Z,10.60
2018-12-20T13:27:39.831Z,10.70
2018-12-20T13:28:40.807Z,10.70
2018-12-20T13:29:41.798Z,10.70
2018-12-20T13:30:43.014Z,10.70
2018-12-20T13:31:44.092Z,10.70
2018-12-20T13:32:45.065Z,10.80
2018-12-20T13:33:46.145Z,10.80